Time;durP1;ratioP1;P1;durP2;ratioP2;P2;SDS_P1;SDS_P2;PMS_P1;PMS_P2;Temp;Humidity;BMP_temperature;BMP_pressure;BME280_temperature;BME280_humidity;BME280_pressure;Samples;Min_cycle;Max_cycle;Signal;HPM_P1;HPM_P2
2022/10/28 00:02:17;;;;;;;1.83;1.73;;;12.90;74.80;;;;;;5014455;28;20224;-70
2022/10/28 00:04:43;;;;;;;4.80;1.75;;;12.90;74.20;;;;;;5011259;28;20193;-70
2022/10/28 00:07:09;;;;;;;3.78;2.05;;;12.90;73.50;;;;;;5008655;28;20678;-70
2022/10/28 00:09:34;;;;;;;1.70;1.60;;;12.80;72.80;;;;;;5011558;28;20177;-70
2022/10/28 00:12:00;;;;;;;1.70;1.60;;;12.80;73.30;;;;;;5010385;28;20189;-70
2022/10/28 00:14:26;;;;;;;2.13;1.55;;;12.80;73.30;;;;;;5011506;28;20551;-70
2022/10/28 00:16:51;;;;;;;1.90;1.50;;;12.80;72.90;;;;;;5011979;28;20217;-70
2022/10/28 00:19:17;;;;;;;1.70;1.55;;;12.80;73.00;;;;;;5015747;28;20191;-70
2022/10/28 00:21:44;;;;;;;1.50;1.42;;;12.80;74.00;;;;;;5012736;28;20590;-70
2022/10/28 00:24:11;;;;;;;2.25;1.73;;;12.80;74.40;;;;;;5009386;28;20603;-70
2022/10/28 00:26:41;;;;;;;2.88;1.73;;;12.80;72.90;;;;;;5008870;28;20208;-70
2022/10/28 00:29:13;;;;;;;3.13;1.60;;;12.70;72.70;;;;;;5009646;28;20280;-70
2022/10/28 00:31:39;;;;;;;2.53;1.80;;;12.70;73.30;;;;;;5011651;28;20721;-70
2022/10/28 00:34:08;;;;;;;1.90;1.80;;;12.70;73.20;;;;;;5007926;28;20216;-70
2022/10/28 00:36:36;;;;;;;1.35;1.25;;;12.70;73.10;;;;;;5009438;28;20227;-70
2022/10/28 00:39:08;;;;;;;2.20;1.67;;;12.70;73.60;;;;;;5010238;28;20701;-70
2022/10/28 00:41:36;;;;;;;1.85;1.75;;;12.70;73.30;;;;;;5010908;28;20173;-70
2022/10/28 00:44:40;;;;;;;4.82;1.70;;;12.60;73.50;;;;;;5010528;28;20184;-69
2022/10/28 00:47:21;;;;;;;2.95;1.88;;;12.60;73.30;;;;;;5014431;28;20279;-70
2022/10/28 00:49:48;;;;;;;2.33;1.80;;;12.60;73.60;;;;;;5015969;28;20183;-70
2022/10/28 00:52:27;;;;;;;3.78;1.90;;;12.50;74.30;;;;;;5011530;28;20638;-70
2022/10/28 00:54:54;;;;;;;1.60;1.50;;;12.50;73.90;;;;;;5007508;28;20192;-70
2022/10/28 00:57:26;;;;;;;1.95;1.55;;;12.50;74.60;;;;;;5009508;28;20185;-70
2022/10/28 00:59:53;;;;;;;3.70;1.63;;;12.50;74.40;;;;;;5008261;28;20194;-70
2022/10/28 01:02:19;;;;;;;2.15;1.48;;;12.50;75.20;;;;;;5006262;28;20213;-70
2022/10/28 01:04:46;;;;;;;2.22;2.03;;;12.40;75.80;;;;;;5009225;28;20658;-70
2022/10/28 01:07:12;;;;;;;2.13;1.92;;;12.40;76.60;;;;;;5011788;28;20177;-70
2022/10/28 01:09:39;;;;;;;1.75;1.65;;;12.30;76.50;;;;;;5012150;28;20223;-70
2022/10/28 01:12:26;;;;;;;1.50;1.38;;;12.30;76.40;;;;;;5010405;28;20251;-70
2022/10/28 01:15:29;;;;;;;2.08;1.90;;;12.30;75.80;;;;;;5008041;28;20189;-70
2022/10/28 01:18:10;;;;;;;2.08;1.88;;;12.20;75.50;;;;;;5009298;28;20191;-70
2022/10/28 01:20:49;;;;;;;3.13;1.67;;;12.10;74.40;;;;;;5014794;28;20572;-69
2022/10/28 01:23:35;;;;;;;2.55;1.63;;;12.10;74.40;;;;;;5006357;28;20180;-70
2022/10/28 01:26:22;;;;;;;1.45;1.35;;;12.10;74.40;;;;;;5008165;28;20200;-70
2022/10/28 01:29:20;;;;;;;4.15;2.50;;;12.10;75.30;;;;;;5008543;28;20192;-70
2022/10/28 01:31:50;;;;;;;1.10;1.02;;;12.10;74.50;;;;;;5008716;28;20222;-70
2022/10/28 01:34:39;;;;;;;1.85;1.63;;;12.10;75.90;;;;;;5007402;28;20329;-70
2022/10/28 01:37:17;;;;;;;1.48;1.40;;;12.10;76.50;;;;;;4940993;28;20214;-70
2022/10/28 01:39:52;;;;;;;3.00;1.60;;;12.00;75.50;;;;;;4941355;28;20699;-69
2022/10/28 01:42:41;;;;;;;1.73;1.63;;;12.00;76.90;;;;;;4942163;28;20889;-69
2022/10/28 01:45:17;;;;;;;1.27;1.17;;;12.00;75.10;;;;;;4942292;29;20584;-69
2022/10/28 01:47:51;;;;;;;1.63;1.52;;;11.90;75.90;;;;;;4942605;28;20191;-70
2022/10/28 01:50:22;;;;;;;2.10;1.90;;;11.90;77.50;;;;;;4941834;28;20571;-70
2022/10/28 01:52:51;;;;;;;2.05;1.83;;;11.90;77.00;;;;;;4941839;28;20355;-70
2022/10/28 01:55:25;;;;;;;2.35;1.90;;;11.90;77.30;;;;;;4942800;28;20685;-69
2022/10/28 01:57:53;;;;;;;2.03;1.92;;;11.90;77.70;;;;;;4942055;28;20941;-70
2022/10/28 02:00:19;;;;;;;1.95;1.95;;;11.90;78.00;;;;;;4946737;29;20187;-69
2022/10/28 02:02:48;;;;;;;1.63;1.60;;;11.80;77.80;;;;;;4944733;28;20282;-70
2022/10/28 02:05:32;;;;;;;1.85;1.75;;;11.80;76.70;;;;;;4946536;28;20192;-70
2022/10/28 02:08:05;;;;;;;1.77;1.73;;;11.70;75.40;;;;;;4945673;28;20278;-70
2022/10/28 02:10:39;;;;;;;2.40;2.30;;;11.70;75.80;;;;;;4944927;28;20630;-70
2022/10/28 02:13:12;;;;;;;1.73;1.73;;;11.70;76.00;;;;;;4947140;28;20220;-70
2022/10/28 02:15:43;;;;;;;2.78;1.67;;;11.60;76.00;;;;;;5018258;28;20243;-69
2022/10/28 02:18:22;;;;;;;1.60;1.60;;;11.60;76.10;;;;;;5012032;28;20196;-70
2022/10/28 02:21:29;;;;;;;1.77;1.67;;;11.60;75.90;;;;;;5016609;28;20251;-70
2022/10/28 02:24:27;;;;;;;1.83;1.60;;;11.60;76.30;;;;;;4967895;28;20197;-71
2022/10/28 02:27:04;;;;;;;4.38;2.20;;;11.60;76.20;;;;;;4967421;28;20194;-70
2022/10/28 02:29:46;;;;;;;2.30;2.10;;;11.60;76.30;;;;;;4972399;28;20675;-71
2022/10/28 02:32:19;;;;;;;1.93;1.83;;;11.60;75.90;;;;;;4968506;28;20281;-71
2022/10/28 02:34:49;;;;;;;1.80;1.70;;;11.50;75.40;;;;;;4969418;28;20203;-70
2022/10/28 02:37:27;;;;;;;1.63;1.63;;;11.50;76.10;;;;;;4969789;28;20778;-70
2022/10/28 02:40:00;;;;;;;1.88;1.77;;;11.50;75.70;;;;;;4973827;28;20668;-70
2022/10/28 02:42:29;;;;;;;1.45;1.45;;;11.50;76.00;;;;;;4973550;28;20763;-70
2022/10/28 02:45:05;;;;;;;3.80;1.70;;;11.50;76.70;;;;;;4966973;28;20348;-70
2022/10/28 02:47:35;;;;;;;2.90;2.20;;;11.50;76.10;;;;;;4969723;28;20189;-70
2022/10/28 02:50:05;;;;;;;2.67;2.47;;;11.40;76.50;;;;;;4973247;28;20189;-69
2022/10/28 02:52:33;;;;;;;2.90;2.70;;;11.40;76.60;;;;;;4970291;28;20226;-71
2022/10/28 02:55:03;;;;;;;3.33;3.00;;;11.40;76.60;;;;;;4971982;28;20244;-70
2022/10/28 02:57:34;;;;;;;3.07;2.83;;;11.30;77.00;;;;;;4971105;28;20198;-71
2022/10/28 03:00:10;;;;;;;7.10;3.93;;;11.30;76.70;;;;;;5002765;28;20257;-71
2022/10/28 03:02:36;;;;;;;4.03;3.17;;;11.30;77.10;;;;;;5013616;28;20220;-70
2022/10/28 03:05:04;;;;;;;6.30;3.20;;;11.20;78.30;;;;;;5014238;28;20216;-70
2022/10/28 03:07:30;;;;;;;4.50;3.73;;;11.20;78.20;;;;;;5009186;28;20184;-70
2022/10/28 03:09:55;;;;;;;9.53;3.43;;;11.20;79.10;;;;;;5016164;28;20188;-70
2022/10/28 03:12:21;;;;;;;4.07;3.77;;;11.10;78.40;;;;;;5014443;28;20574;-70
2022/10/28 03:14:47;;;;;;;5.72;3.78;;;11.10;78.00;;;;;;5013554;28;20275;-71
2022/10/28 03:17:12;;;;;;;3.77;3.47;;;11.00;77.70;;;;;;5011270;28;20617;-69
2022/10/28 03:19:38;;;;;;;6.27;3.73;;;11.00;79.00;;;;;;5009488;28;20195;-70
2022/10/28 03:22:04;;;;;;;5.97;3.93;;;10.90;77.50;;;;;;5007651;28;20212;-70
2022/10/28 03:24:29;;;;;;;4.50;3.47;;;10.90;77.60;;;;;;5010125;28;20188;-70
2022/10/28 03:26:55;;;;;;;4.00;3.53;;;10.80;78.30;;;;;;5011917;28;20643;-70
2022/10/28 03:29:20;;;;;;;4.40;2.97;;;10.80;77.90;;;;;;5014914;28;20272;-70
2022/10/28 03:31:46;;;;;;;5.03;3.47;;;10.80;77.60;;;;;;5011324;28;20181;-70
2022/10/28 03:34:12;;;;;;;3.77;3.47;;;10.80;77.80;;;;;;5014663;28;20216;-70
2022/10/28 03:36:37;;;;;;;3.93;3.30;;;10.80;78.80;;;;;;5011900;28;20193;-70
2022/10/28 03:39:03;;;;;;;3.33;2.87;;;10.80;79.70;;;;;;5007213;28;20189;-69
2022/10/28 03:41:29;;;;;;;3.30;2.90;;;10.80;79.40;;;;;;5012248;28;20898;-71
2022/10/28 03:43:54;;;;;;;2.93;2.73;;;10.80;78.70;;;;;;5009876;28;20219;-69
2022/10/28 03:46:20;;;;;;;6.27;3.90;;;10.70;79.30;;;;;;5009461;28;20200;-70
2022/10/28 03:48:46;;;;;;;3.87;3.40;;;10.70;79.60;;;;;;5010178;28;20196;-70
2022/10/28 03:51:11;;;;;;;6.87;3.10;;;10.70;79.10;;;;;;5014762;28;20189;-71
2022/10/28 03:53:37;;;;;;;5.20;3.73;;;10.70;79.30;;;;;;5013100;28;20224;-70
2022/10/28 03:56:03;;;;;;;6.50;3.77;;;10.70;78.90;;;;;;5005147;28;20185;-71
2022/10/28 03:58:32;;;;;;;4.33;3.03;;;10.70;79.00;;;;;;5008715;28;20243;-71
2022/10/28 04:00:57;;;;;;;4.50;3.77;;;10.70;79.30;;;;;;5012593;28;20259;-70
2022/10/28 04:03:24;;;;;;;5.73;3.27;;;10.70;79.30;;;;;;5008012;28;20647;-72
2022/10/28 04:05:50;;;;;;;3.57;3.33;;;10.60;79.90;;;;;;5011674;28;20199;-70
2022/10/28 04:08:17;;;;;;;2.67;2.53;;;10.60;79.80;;;;;;5013084;28;20619;-71
2022/10/28 04:10:45;;;;;;;4.83;2.80;;;10.60;80.00;;;;;;5013378;28;20195;-69
2022/10/28 04:13:11;;;;;;;3.10;2.80;;;10.60;79.70;;;;;;5010706;28;20223;-70
2022/10/28 04:15:37;;;;;;;5.93;3.10;;;10.60;79.20;;;;;;5008438;28;20185;-70
2022/10/28 04:18:03;;;;;;;4.03;2.90;;;10.60;79.50;;;;;;5007013;28;20726;-70
2022/10/28 04:20:30;;;;;;;3.07;2.87;;;10.60;79.20;;;;;;5010897;28;20180;-71
2022/10/28 04:22:55;;;;;;;6.20;2.97;;;10.60;79.50;;;;;;5006037;28;20195;-71
2022/10/28 04:25:22;;;;;;;3.97;3.67;;;10.50;80.00;;;;;;5007631;28;20665;-71
2022/10/28 04:27:48;;;;;;;5.83;3.87;;;10.50;80.70;;;;;;5009690;28;20247;-71
2022/10/28 04:30:14;;;;;;;2.47;2.37;;;10.50;81.10;;;;;;5016196;28;20184;-72
2022/10/28 04:32:40;;;;;;;3.13;2.83;;;10.50;81.50;;;;;;5005916;28;20259;-70
2022/10/28 04:35:07;;;;;;;4.17;3.37;;;10.50;81.30;;;;;;5008471;28;20185;-70
2022/10/28 04:37:33;;;;;;;4.37;2.97;;;10.50;81.40;;;;;;5007204;28;20188;-72
2022/10/28 04:39:58;;;;;;;3.43;3.20;;;10.40;81.40;;;;;;5011271;28;20185;-72
2022/10/28 04:42:24;;;;;;;4.57;3.00;;;10.40;81.70;;;;;;5009720;28;20181;-71
2022/10/28 04:44:50;;;;;;;5.67;3.80;;;10.40;81.70;;;;;;5012089;28;20189;-71
2022/10/28 04:47:16;;;;;;;4.20;3.30;;;10.30;81.90;;;;;;5014477;28;20196;-73
2022/10/28 04:49:42;;;;;;;6.07;3.63;;;10.30;81.20;;;;;;5008225;28;20184;-72
2022/10/28 04:52:08;;;;;;;7.73;4.17;;;10.20;81.80;;;;;;5012783;28;20279;-71
2022/10/28 04:54:34;;;;;;;4.50;3.70;;;10.20;80.60;;;;;;5008037;28;20231;-71
2022/10/28 04:56:59;;;;;;;4.17;3.83;;;10.10;80.60;;;;;;5006537;28;20189;-70
2022/10/28 04:59:25;;;;;;;4.00;3.40;;;10.10;81.70;;;;;;5008951;28;20180;-71
2022/10/28 05:01:51;;;;;;;7.60;4.27;;;10.00;81.00;;;;;;5009128;28;20184;-70
2022/10/28 05:04:16;;;;;;;3.93;3.50;;;10.00;81.20;;;;;;5004346;28;20193;-72
2022/10/28 05:06:42;;;;;;;6.47;3.93;;;10.00;80.90;;;;;;5006053;28;20192;-72
2022/10/28 05:09:08;;;;;;;5.53;3.30;;;10.00;82.20;;;;;;5005265;28;20220;-70
2022/10/28 05:11:33;;;;;;;4.90;3.60;;;10.00;81.90;;;;;;5009955;28;20185;-70
2022/10/28 05:13:59;;;;;;;4.13;3.00;;;9.90;81.80;;;;;;5012407;28;20216;-71
2022/10/28 05:16:25;;;;;;;3.60;3.30;;;9.90;81.90;;;;;;5009742;28;20869;-72
2022/10/28 05:18:50;;;;;;;5.13;3.63;;;9.90;81.40;;;;;;5009266;28;20917;-70
2022/10/28 05:21:16;;;;;;;3.77;2.73;;;9.90;81.00;;;;;;5007456;28;20208;-70
2022/10/28 05:23:42;;;;;;;3.43;3.10;;;9.90;81.30;;;;;;5008555;28;20187;-71
2022/10/28 05:26:08;;;;;;;4.13;2.90;;;9.90;82.00;;;;;;5007178;28;20195;-70
2022/10/28 05:28:33;;;;;;;5.70;3.03;;;10.00;81.90;;;;;;5008450;28;20222;-71
2022/10/28 05:30:59;;;;;;;3.70;3.47;;;10.00;81.80;;;;;;5012074;28;20608;-70
2022/10/28 05:33:25;;;;;;;4.20;3.03;;;10.00;82.30;;;;;;5014567;28;20596;-70
2022/10/28 05:35:50;;;;;;;4.13;3.83;;;10.00;82.40;;;;;;5011981;28;20697;-69
2022/10/28 05:38:16;;;;;;;4.90;3.43;;;10.10;82.10;;;;;;5012134;28;20177;-70
2022/10/28 05:40:42;;;;;;;5.23;3.83;;;10.10;82.40;;;;;;5011575;28;20262;-71
2022/10/28 05:43:09;;;;;;;6.47;3.90;;;10.10;82.10;;;;;;5013435;28;20188;-71
2022/10/28 05:45:35;;;;;;;6.43;3.77;;;10.10;82.20;;;;;;5014383;28;20717;-70
2022/10/28 05:48:01;;;;;;;4.57;3.67;;;10.20;82.00;;;;;;5014597;28;20185;-70
2022/10/28 05:50:26;;;;;;;6.20;4.33;;;10.20;82.50;;;;;;5012133;28;20181;-70
2022/10/28 05:52:54;;;;;;;6.47;3.67;;;10.20;82.30;;;;;;5011142;28;20212;-70
2022/10/28 05:55:22;;;;;;;5.73;3.30;;;10.30;82.30;;;;;;5012661;28;20177;-71
2022/10/28 05:57:50;;;;;;;5.63;3.47;;;10.30;82.60;;;;;;5015697;28;20205;-71
2022/10/28 06:00:18;;;;;;;4.47;3.30;;;10.30;82.00;;;;;;5007580;28;20184;-71
2022/10/28 06:02:44;;;;;;;4.00;3.67;;;10.40;82.30;;;;;;5006438;28;20200;-70
2022/10/28 06:05:10;;;;;;;3.87;3.57;;;10.40;82.40;;;;;;5012658;28;20188;-70
2022/10/28 06:07:38;;;;;;;6.37;3.73;;;10.40;82.00;;;;;;5016070;28;20196;-71
2022/10/28 06:10:05;;;;;;;6.00;3.73;;;10.50;82.30;;;;;;5015035;28;20208;-71
2022/10/28 06:12:31;;;;;;;4.03;3.67;;;10.50;82.60;;;;;;5017970;28;20553;-70
2022/10/28 06:14:57;;;;;;;4.93;4.17;;;10.60;82.60;;;;;;5011437;28;20187;-70
2022/10/28 06:17:23;;;;;;;4.43;4.03;;;10.60;82.30;;;;;;5011631;28;20598;-70
2022/10/28 06:19:48;;;;;;;7.60;3.67;;;10.70;82.30;;;;;;5013112;28;20409;-71
2022/10/28 06:22:14;;;;;;;4.83;4.40;;;10.70;81.90;;;;;;5017531;28;20185;-69
2022/10/28 06:24:40;;;;;;;9.33;4.63;;;10.80;82.00;;;;;;5007088;28;20189;-72
2022/10/28 06:27:06;;;;;;;7.13;4.83;;;10.80;82.10;;;;;;5011938;28;20185;-70
2022/10/28 06:29:32;;;;;;;6.07;4.17;;;10.90;82.20;;;;;;5015591;28;20195;-70
2022/10/28 06:31:58;;;;;;;6.03;4.77;;;11.00;82.20;;;;;;5014036;28;20184;-71
2022/10/28 06:34:24;;;;;;;8.07;5.03;;;11.00;81.50;;;;;;5015886;28;20228;-70
2022/10/28 06:36:49;;;;;;;11.30;5.43;;;11.10;81.00;;;;;;5013586;28;20271;-70
2022/10/28 06:39:15;;;;;;;8.95;6.55;;;11.20;81.70;;;;;;5019084;28;20181;-70
2022/10/28 06:41:41;;;;;;;8.60;6.23;;;11.30;82.50;;;;;;5009959;28;20189;-70
2022/10/28 06:44:07;;;;;;;9.17;5.83;;;11.40;83.10;;;;;;5009829;28;20184;-70
2022/10/28 06:46:33;;;;;;;17.20;6.07;;;11.50;83.70;;;;;;5014352;28;20682;-70
2022/10/28 06:49:01;;;;;;;9.13;5.30;;;11.70;84.40;;;;;;5014744;28;20182;-70
2022/10/28 06:51:28;;;;;;;11.18;5.57;;;12.00;83.20;;;;;;5011928;28;20274;-72
2022/10/28 06:53:54;;;;;;;7.78;5.32;;;12.50;82.30;;;;;;5016183;28;20701;-70
2022/10/28 06:56:20;;;;;;;6.40;5.65;;;13.00;81.70;;;;;;5010751;28;20244;-70
2022/10/28 06:58:53;;;;;;;8.52;5.97;;;13.50;81.10;;;;;;5011520;28;20243;-70
2022/10/28 07:01:19;;;;;;;7.10;5.63;;;14.20;80.10;;;;;;5022613;28;20874;-70
2022/10/28 07:03:45;;;;;;;6.72;5.80;;;15.00;79.60;;;;;;5012968;28;20199;-70
2022/10/28 07:06:11;;;;;;;11.00;6.18;;;15.70;77.90;;;;;;5014645;28;20268;-71
2022/10/28 07:08:36;;;;;;;8.85;6.68;;;16.40;75.20;;;;;;5012434;28;20271;-70
2022/10/28 07:11:02;;;;;;;7.03;5.72;;;17.20;73.90;;;;;;5010073;28;20177;-70
2022/10/28 07:13:28;;;;;;;6.82;6.15;;;17.80;72.30;;;;;;5011869;28;20221;-71
2022/10/28 07:15:57;;;;;;;9.13;6.32;;;18.60;70.80;;;;;;5016080;28;20188;-72
2022/10/28 07:18:24;;;;;;;10.43;6.22;;;19.30;69.70;;;;;;5013207;28;20188;-71
2022/10/28 07:20:50;;;;;;;10.82;7.20;;;19.90;67.60;;;;;;5010819;28;20683;-71
2022/10/28 07:23:16;;;;;;;10.18;6.43;;;20.50;66.70;;;;;;5012383;28;20189;-71
2022/10/28 07:25:42;;;;;;;9.65;6.03;;;21.10;65.30;;;;;;5015748;28;20238;-69
2022/10/28 07:28:08;;;;;;;9.60;5.90;;;21.70;64.50;;;;;;5016266;28;20227;-70
2022/10/28 07:30:34;;;;;;;8.38;6.68;;;22.30;62.50;;;;;;5011257;28;21753;-70
2022/10/28 07:33:00;;;;;;;10.18;5.97;;;22.80;62.10;;;;;;5011237;28;20688;-70
2022/10/28 07:35:29;;;;;;;7.60;5.72;;;23.30;61.50;;;;;;5014661;28;20188;-70
2022/10/28 07:37:56;;;;;;;5.60;5.15;;;23.80;60.40;;;;;;5013976;28;20682;-70
2022/10/28 07:40:23;;;;;;;9.10;5.63;;;24.30;59.20;;;;;;5010039;28;20741;-70
2022/10/28 07:42:48;;;;;;;7.22;4.70;;;24.70;57.90;;;;;;5010408;28;20250;-70
2022/10/28 07:45:14;;;;;;;6.30;5.25;;;25.10;57.80;;;;;;5009210;28;20206;-71
2022/10/28 07:47:40;;;;;;;9.25;5.30;;;25.50;57.00;;;;;;5011638;28;20192;-69
2022/10/28 07:50:07;;;;;;;5.60;5.07;;;25.90;56.20;;;;;;5013624;28;20177;-69
2022/10/28 07:52:34;;;;;;;5.53;4.68;;;26.30;55.50;;;;;;5009837;28;20264;-68
2022/10/28 07:55:00;;;;;;;7.65;4.80;;;26.60;55.30;;;;;;5010202;28;20176;-68
2022/10/28 07:57:26;;;;;;;7.15;5.32;;;26.90;55.30;;;;;;5010925;28;20177;-68
2022/10/28 07:59:51;;;;;;;8.27;5.07;;;27.20;54.20;;;;;;5009723;28;20175;-69
2022/10/28 08:02:20;;;;;;;6.00;5.35;;;27.60;53.80;;;;;;5011951;28;20208;-69
2022/10/28 08:04:46;;;;;;;6.85;5.97;;;27.90;52.90;;;;;;5012368;28;20195;-69
2022/10/28 08:07:12;;;;;;;6.72;6.10;;;28.30;51.90;;;;;;5005841;28;20193;-68
2022/10/28 08:09:38;;;;;;;9.25;6.45;;;28.60;52.20;;;;;;5005141;28;20180;-69
2022/10/28 08:12:05;;;;;;;7.28;5.85;;;29.00;51.60;;;;;;5010034;28;20184;-69
2022/10/28 08:14:31;;;;;;;6.80;6.22;;;29.30;51.00;;;;;;5011199;28;20215;-69
2022/10/28 08:16:57;;;;;;;6.80;6.22;;;29.70;50.60;;;;;;5007104;28;20195;-70
2022/10/28 08:19:22;;;;;;;6.00;5.50;;;30.00;50.20;;;;;;5010711;28;20184;-70
2022/10/28 08:21:48;;;;;;;8.68;6.63;;;30.30;49.60;;;;;;5008469;28;20323;-69
2022/10/28 08:24:14;;;;;;;7.20;5.50;;;30.50;49.40;;;;;;5008332;28;20342;-70
2022/10/28 08:26:39;;;;;;;6.80;6.22;;;30.60;48.50;;;;;;5007567;28;21070;-70
2022/10/28 08:29:06;;;;;;;8.13;7.25;;;30.70;48.70;;;;;;5013637;28;20334;-70
2022/10/28 08:31:32;;;;;;;7.55;6.82;;;30.70;48.00;;;;;;5009853;28;20272;-70
2022/10/28 08:33:58;;;;;;;7.68;6.20;;;30.70;48.80;;;;;;5014289;28;20300;-69
2022/10/28 08:36:24;;;;;;;6.93;6.35;;;30.90;48.60;;;;;;5010086;28;20195;-68
2022/10/28 08:38:49;;;;;;;8.77;6.28;;;31.10;48.10;;;;;;5013824;28;20193;-69
2022/10/28 08:41:15;;;;;;;7.10;6.57;;;31.50;47.40;;;;;;5013085;28;20184;-70
2022/10/28 08:43:53;;;;;;;9.20;6.60;;;31.80;47.20;;;;;;5013030;28;20260;-69
2022/10/28 08:46:27;;;;;;;8.32;6.35;;;32.10;46.90;;;;;;5010406;28;20799;-69
2022/10/28 08:48:53;;;;;;;7.13;6.47;;;32.40;46.90;;;;;;5008500;28;20250;-68
2022/10/28 08:51:42;;;;;;;8.77;6.38;;;32.50;45.20;;;;;;5010621;28;20189;-69
2022/10/28 08:54:31;;;;;;;8.23;7.00;;;32.50;44.80;;;;;;4970053;28;20239;-71
2022/10/28 08:57:00;;;;;;;8.75;6.40;;;32.20;45.50;;;;;;4970732;28;20209;-70
2022/10/28 08:59:37;;;;;;;9.27;7.20;;;32.30;46.50;;;;;;4972676;28;20356;-67
2022/10/28 09:02:24;;;;;;;11.57;6.95;;;32.50;46.30;;;;;;4972448;28;20336;-69
2022/10/28 09:05:03;;;;;;;6.10;5.70;;;32.80;45.10;;;;;;4967134;28;21297;-68
2022/10/28 09:07:32;;;;;;;10.10;6.75;;;33.00;46.20;;;;;;4973228;28;20190;-69
2022/10/28 09:09:58;;;;;;;7.25;6.47;;;33.30;45.70;;;;;;4967492;28;20650;-70
2022/10/28 09:12:32;;;;;;;7.20;6.13;;;33.50;45.30;;;;;;4966965;28;20205;-69
2022/10/28 09:15:00;;;;;;;7.82;6.30;;;33.90;45.10;;;;;;4966336;28;20210;-69
2022/10/28 09:17:35;;;;;;;10.43;6.28;;;34.20;43.30;;;;;;4968566;28;20181;-70
2022/10/28 09:20:29;;;;;;;9.57;5.82;;;34.40;44.60;;;;;;4968264;28;20217;-68
2022/10/28 09:23:02;;;;;;;5.55;5.22;;;34.70;44.40;;;;;;4962811;28;20190;-69
2022/10/28 09:25:51;;;;;;;6.15;5.10;;;35.00;44.60;;;;;;4962575;28;20256;-69
2022/10/28 09:28:50;;;;;;;6.63;5.55;;;35.10;43.30;;;;;;4964421;28;20196;-68
2022/10/28 09:31:37;;;;;;;5.20;4.78;;;35.30;43.50;;;;;;4986958;28;20192;-68
2022/10/28 09:34:17;;;;;;;5.40;4.63;;;35.60;43.40;;;;;;5012107;28;20779;-70
2022/10/28 09:36:52;;;;;;;10.93;6.00;;;35.70;44.20;;;;;;5012383;28;20669;-69
2022/10/28 09:39:23;;;;;;;6.18;5.68;;;35.80;41.90;;;;;;5008012;28;20242;-70
2022/10/28 09:41:51;;;;;;;6.38;5.78;;;35.60;43.40;;;;;;5010655;28;20269;-69
2022/10/28 09:44:32;;;;;;;9.20;8.27;;;35.40;42.60;;;;;;5005518;28;20569;-69
2022/10/28 09:47:01;;;;;;;12.20;10.30;;;35.20;43.70;;;;;;5008735;28;20884;-69
2022/10/28 09:49:32;;;;;;;12.15;9.70;;;35.30;44.10;;;;;;5012073;28;20184;-69
2022/10/28 09:51:57;;;;;;;10.45;9.35;;;35.50;42.20;;;;;;5012834;28;20575;-68
2022/10/28 09:54:44;;;;;;;8.40;7.63;;;35.70;43.80;;;;;;5009851;28;20209;-69
2022/10/28 09:57:11;;;;;;;6.85;6.15;;;36.00;42.10;;;;;;5009007;28;20191;-69
2022/10/28 09:59:37;;;;;;;6.00;5.65;;;36.30;43.00;;;;;;5010729;28;20213;-68
2022/10/28 10:02:04;;;;;;;6.50;6.00;;;36.50;43.00;;;;;;5015062;28;20263;-69
2022/10/28 10:04:34;;;;;;;6.80;6.15;;;36.60;43.00;;;;;;5009704;28;20183;-69
2022/10/28 10:07:07;;;;;;;11.00;8.10;;;36.70;41.40;;;;;;5011378;28;20182;-69
2022/10/28 10:09:34;;;;;;;8.43;6.45;;;36.80;41.80;;;;;;5005506;28;20243;-69
2022/10/28 10:12:06;;;;;;;7.35;5.70;;;36.80;40.90;;;;;;5013273;28;20176;-71
2022/10/28 10:14:46;;;;;;;4.80;4.10;;;36.90;42.20;;;;;;5017482;28;20216;-69
2022/10/28 10:17:35;;;;;;;5.43;3.13;;;37.00;42.10;;;;;;5010419;28;20273;-69
2022/10/28 10:20:04;;;;;;;3.55;3.25;;;37.10;42.80;;;;;;5007145;28;20180;-69
2022/10/28 10:22:38;;;;;;;2.92;2.80;;;37.30;41.70;;;;;;5012838;28;20188;-69
2022/10/28 10:25:28;;;;;;;3.13;2.92;;;37.50;42.60;;;;;;5014943;28;20194;-69
2022/10/28 10:27:58;;;;;;;3.72;2.38;;;37.60;40.00;;;;;;5013450;28;20744;-70
2022/10/28 10:30:28;;;;;;;4.60;2.78;;;37.80;41.80;;;;;;5020675;28;20718;-69
2022/10/28 10:32:55;;;;;;;4.60;2.95;;;38.00;41.70;;;;;;5014502;28;20203;-69
2022/10/28 10:35:28;;;;;;;2.88;2.50;;;38.10;41.30;;;;;;5009438;28;20718;-69
2022/10/28 10:37:57;;;;;;;2.45;2.35;;;38.30;41.40;;;;;;5016223;28;20187;-69
2022/10/28 10:40:30;;;;;;;2.35;2.25;;;38.40;41.50;;;;;;5015126;28;20192;-68
2022/10/28 10:43:13;;;;;;;1.85;1.80;;;38.10;40.20;;;;;;5014452;28;20180;-69
2022/10/28 10:45:38;;;;;;;1.90;1.80;;;37.70;39.40;;;;;;5008507;28;20746;-70
2022/10/28 10:48:13;;;;;;;1.83;1.80;;;37.50;40.90;;;;;;5011730;28;20188;-69
2022/10/28 10:50:42;;;;;;;1.98;1.88;;;37.60;39.80;;;;;;5008405;28;20191;-69
2022/10/28 10:53:21;;;;;;;2.05;1.95;;;37.50;38.80;;;;;;5014220;28;20243;-70
2022/10/28 10:56:00;;;;;;;3.05;1.45;;;37.30;40.70;;;;;;5014798;28;20203;-69
2022/10/28 10:58:52;;;;;;;1.60;1.60;;;37.20;40.20;;;;;;5021305;28;20180;-70
2022/10/28 11:01:22;;;;;;;2.45;1.40;;;37.10;39.60;;;;;;5015319;28;20227;-69
2022/10/28 11:03:59;;;;;;;1.10;1.10;;;36.90;40.60;;;;;;5012862;28;20220;-70
2022/10/28 11:06:48;;;;;;;2.33;1.35;;;36.70;40.50;;;;;;5016279;28;20179;-69
2022/10/28 11:09:25;;;;;;;1.85;1.50;;;36.30;39.50;;;;;;5007232;28;20267;-69
2022/10/28 11:11:54;;;;;;;1.30;1.30;;;36.20;41.80;;;;;;5005699;28;20299;-71
2022/10/28 11:14:24;;;;;;;1.48;1.38;;;36.30;41.10;;;;;;5014685;28;20223;-71
2022/10/28 11:16:53;;;;;;;1.52;0.95;;;36.40;41.70;;;;;;5011355;28;20211;-70
2022/10/28 11:19:27;;;;;;;4.25;1.30;;;36.60;41.30;;;;;;5009710;28;20262;-69
2022/10/28 11:22:31;;;;;;;1.38;0.70;;;36.80;40.40;;;;;;5014731;28;20258;-69
2022/10/28 11:25:23;;;;;;;0.90;0.90;;;36.90;39.10;;;;;;5001855;28;20196;-70
2022/10/28 11:28:09;;;;;;;0.77;0.77;;;36.90;38.70;;;;;;5000560;28;20196;-70
2022/10/28 11:30:43;;;;;;;0.98;0.98;;;36.70;37.70;;;;;;4998742;28;20386;-70
2022/10/28 11:33:17;;;;;;;0.93;0.93;;;36.40;37.60;;;;;;5000670;28;20708;-70
2022/10/28 11:35:56;;;;;;;1.48;0.90;;;36.30;38.10;;;;;;5000927;28;20591;-70
2022/10/28 11:38:40;;;;;;;0.77;0.75;;;36.10;39.70;;;;;;5001560;28;20246;-70
2022/10/28 11:41:18;;;;;;;0.80;0.80;;;36.10;38.00;;;;;;5001901;28;20682;-70
2022/10/28 11:43:49;;;;;;;1.30;0.90;;;36.10;39.90;;;;;;5001256;28;20191;-70
2022/10/28 11:46:29;;;;;;;1.25;1.25;;;36.00;38.60;;;;;;5001311;28;20615;-70
2022/10/28 11:49:01;;;;;;;1.02;0.95;;;36.00;39.50;;;;;;5002049;28;20196;-70
2022/10/28 11:51:49;;;;;;;0.80;0.80;;;36.20;39.30;;;;;;5000821;28;20196;-70
2022/10/28 11:54:41;;;;;;;1.10;1.10;;;36.30;37.80;;;;;;5001269;28;20674;-71
2022/10/28 11:57:23;;;;;;;0.80;0.80;;;36.40;38.00;;;;;;5001890;28;20187;-70
2022/10/28 12:00:27;;;;;;;1.33;0.93;;;36.70;37.60;;;;;;5004273;28;20201;-70
2022/10/28 12:03:11;;;;;;;1.00;0.90;;;36.60;37.60;;;;;;5012245;28;20187;-70
2022/10/28 12:05:52;;;;;;;1.02;1.02;;;36.60;37.70;;;;;;5015723;28;20569;-70
2022/10/28 12:08:44;;;;;;;0.80;0.80;;;36.60;37.90;;;;;;5012687;28;20211;-70
2022/10/28 12:11:19;;;;;;;4.38;1.17;;;36.40;37.50;;;;;;5013961;28;20203;-69
2022/10/28 12:14:08;;;;;;;2.13;0.88;;;36.10;37.80;;;;;;5009839;28;20219;-69
2022/10/28 12:17:11;;;;;;;1.20;1.20;;;35.70;37.90;;;;;;5013876;28;20190;-70
2022/10/28 12:19:52;;;;;;;1.20;1.10;;;35.00;38.60;;;;;;5010709;28;20644;-69
2022/10/28 12:22:22;;;;;;;1.33;1.23;;;34.80;38.60;;;;;;5009481;28;20684;-69
2022/10/28 12:24:49;;;;;;;1.20;1.10;;;34.40;39.20;;;;;;5009795;28;20903;-68
2022/10/28 12:27:27;;;;;;;1.30;1.20;;;34.40;38.70;;;;;;5016294;28;20188;-69
2022/10/28 12:30:13;;;;;;;1.23;1.23;;;34.50;38.90;;;;;;5008035;28;20634;-71
2022/10/28 12:32:40;;;;;;;1.42;1.00;;;34.60;40.70;;;;;;5017367;28;20202;-67
2022/10/28 12:35:20;;;;;;;0.98;0.98;;;34.40;39.40;;;;;;5008046;28;20317;-70
2022/10/28 12:38:12;;;;;;;1.10;1.10;;;34.40;39.50;;;;;;5014152;28;20237;-70
2022/10/28 12:40:58;;;;;;;1.00;1.00;;;34.50;39.80;;;;;;5010278;28;20210;-70
2022/10/28 12:43:39;;;;;;;1.10;1.10;;;34.40;39.00;;;;;;5012716;28;20820;-70
2022/10/28 12:46:19;;;;;;;3.22;1.05;;;34.30;39.40;;;;;;5013449;28;20195;-68
2022/10/28 12:48:50;;;;;;;1.30;1.20;;;34.30;39.70;;;;;;5011322;28;20584;-68
2022/10/28 12:51:22;;;;;;;1.42;1.42;;;34.40;40.40;;;;;;5011320;28;20219;-71
2022/10/28 12:54:11;;;;;;;1.10;1.10;;;34.20;40.80;;;;;;5010663;28;20301;-70
2022/10/28 12:56:42;;;;;;;2.15;1.17;;;34.10;39.70;;;;;;4973793;28;20957;-70
2022/10/28 12:59:23;;;;;;;1.20;1.20;;;34.00;39.90;;;;;;4971320;28;20748;-68
2022/10/28 13:01:50;;;;;;;1.77;1.42;;;34.00;40.30;;;;;;4968391;28;22235;-70
2022/10/28 13:04:16;;;;;;;1.33;1.27;;;33.90;40.40;;;;;;4969852;28;20789;-70
2022/10/28 13:07:12;;;;;;;1.33;1.33;;;33.80;40.90;;;;;;4973194;28;20185;-69
2022/10/28 13:10:04;;;;;;;1.25;1.25;;;33.50;40.10;;;;;;4969131;28;20190;-70